Weather at Al Mushrif Palace Helipad

Public forecast

Using degrees Celsius for public forecast. Weather courtesy of forecast.io.

Closest aviation weather report (METAR) to Al Mushrif Palace Helipad

Closest report is Al Bateen Executive Airport, 4.6 nm (8.6 km) ESE. Retrieved 2022/01/29 06:00 UTC (30 minutes ago):

OMAD 290600Z 32009KT CAVOK 21/14 Q1020 NOSIG

Closest aviation forecast (TAF) to Al Mushrif Palace Helipad

Closest forecast is Al Bateen Executive Airport, 4.6 nm (8.6 km) ESE. Retrieved 2022/01/29 06:03 UTC (27 minutes ago):

TAF TAF OMAD 290500Z 2906/3012 32010KT 8000 NSC BECMG 2920/2922 26005KT PROB30 2922/3005 VRB02KT 4000 HZ BECMG 3006/3008 32010KT